Time;durP1;ratioP1;P1;durP2;ratioP2;P2;SDS_P1;SDS_P2;PMS_P1;PMS_P2;Temp;Humidity;BMP_temperature;BMP_pressure;BME280_temperature;BME280_humidity;BME280_pressure;Samples;Min_cycle;Max_cycle;Signal;HPM_P1;HPM_P2
2021/06/09 00:00:11;;;;;;;11.32;7.00;;;;;;;12.20;80.85;102014.88;5013242;28;20481;-84
2021/06/09 00:02:37;;;;;;;18.17;9.70;;;;;;;12.19;80.48;102015.81;5015988;28;20021;-84
2021/06/09 00:05:03;;;;;;;16.80;8.60;;;;;;;12.16;80.62;102026.75;5016672;28;20212;-84
2021/06/09 00:07:28;;;;;;;13.65;7.03;;;;;;;12.12;81.70;102022.44;5014771;28;20033;-84
2021/06/09 00:09:54;;;;;;;11.18;6.65;;;;;;;12.07;81.19;102016.38;5016277;28;20053;-83
2021/06/09 00:12:19;;;;;;;12.25;5.03;;;;;;;11.98;81.23;102001.50;5016573;28;20022;-84
2021/06/09 00:14:44;;;;;;;9.32;4.18;;;;;;;12.08;80.35;102025.34;5016659;28;20125;-84
2021/06/09 00:17:10;;;;;;;7.93;3.67;;;;;;;11.96;81.15;102006.06;5016464;28;20097;-83
2021/06/09 00:19:35;;;;;;;10.35;4.13;;;;;;;11.97;80.32;101996.16;5012630;28;20092;-84
2021/06/09 00:22:01;;;;;;;7.85;3.47;;;;;;;11.95;80.97;102004.34;4997206;28;20037;-84
2021/06/09 00:24:26;;;;;;;8.50;4.22;;;;;;;12.02;81.03;102006.75;4996878;28;20022;-84
2021/06/09 00:26:52;;;;;;;10.10;3.92;;;;;;;12.00;80.90;102006.84;4996855;28;20030;-84
2021/06/09 00:29:19;;;;;;;8.07;4.57;;;;;;;11.96;81.94;102003.38;4996540;28;20389;-84
2021/06/09 00:31:44;;;;;;;8.43;4.57;;;;;;;11.95;81.27;102007.03;4996566;28;20477;-84
2021/06/09 00:34:10;;;;;;;8.88;5.55;;;;;;;11.94;82.34;102005.25;4996535;28;20030;-83
2021/06/09 00:36:35;;;;;;;11.68;6.22;;;;;;;11.90;82.90;102000.09;4996657;28;20033;-84
2021/06/09 00:39:00;;;;;;;14.32;5.93;;;;;;;11.80;81.85;102003.16;4996907;28;20034;-86
2021/06/09 00:41:26;;;;;;;9.40;4.70;;;;;;;11.80;82.05;101997.75;4996666;28;20129;-83
2021/06/09 00:44:09;;;;;;;8.55;4.18;;;;;;;11.85;81.83;102000.25;4996295;28;20129;-84
2021/06/09 00:46:37;;;;;;;7.47;3.47;;;;;;;11.81;82.30;102004.00;4996317;28;20026;-83
2021/06/09 00:49:03;;;;;;;6.68;3.78;;;;;;;11.85;81.86;102005.63;4996363;28;20081;-83
2021/06/09 00:51:28;;;;;;;8.05;3.55;;;;;;;11.83;82.00;101995.88;4997535;28;20741;-83
2021/06/09 00:53:57;;;;;;;6.68;3.13;;;;;;;11.77;82.98;101991.66;4980049;28;20054;-84
2021/06/09 00:56:23;;;;;;;7.65;3.90;;;;;;;11.77;82.69;101997.03;4996605;28;20029;-83
2021/06/09 00:58:50;;;;;;;6.30;3.45;;;;;;;11.75;83.38;101997.09;4996592;28;20038;-83
2021/06/09 01:01:17;;;;;;;6.97;3.78;;;;;;;11.72;83.24;101990.94;4996171;28;20041;-83
2021/06/09 01:03:42;;;;;;;;;;;;;;;11.67;82.92;101991.16;4996431;28;20030;-86
2021/06/09 01:06:08;;;;;;;7.25;3.72;;;;;;;11.63;83.01;101994.03;4996011;28;19920;-84
2021/06/09 01:08:36;;;;;;;12.75;3.67;;;;;;;11.59;83.39;101986.09;4979597;28;20081;-83
2021/06/09 01:11:02;;;;;;;6.35;3.90;;;;;;;11.57;84.30;101987.97;4995872;28;20050;-83
2021/06/09 01:13:29;;;;;;;10.10;4.40;;;;;;;11.50;84.56;101977.56;4994631;28;20026;-84
2021/06/09 01:15:55;;;;;;;8.68;4.18;;;;;;;11.51;83.90;101993.66;4995897;28;20032;-83
2021/06/09 01:18:21;;;;;;;8.93;4.15;;;;;;;11.48;84.48;101988.38;4995968;28;20080;-83
2021/06/09 01:20:47;;;;;;;7.35;3.92;;;;;;;11.41;84.97;101981.50;5003751;28;20385;-84
2021/06/09 01:23:12;;;;;;;8.02;3.80;;;;;;;11.42;84.44;101991.34;5015150;28;20022;-83
2021/06/09 01:25:37;;;;;;;8.13;4.10;;;;;;;11.40;84.73;101987.84;5015187;28;20474;-84
2021/06/09 01:28:04;;;;;;;7.80;4.10;;;;;;;11.41;84.22;101988.72;5015248;28;20081;-84
2021/06/09 01:30:29;;;;;;;6.75;3.97;;;;;;;11.31;84.71;101972.94;5014960;28;20034;-83
2021/06/09 01:32:55;;;;;;;7.72;4.25;;;;;;;11.39;85.32;101996.84;5015080;28;20385;-84
2021/06/09 01:35:21;;;;;;;6.97;3.67;;;;;;;11.37;85.26;101999.63;5015091;28;20045;-83
2021/06/09 01:37:47;;;;;;;7.88;3.80;;;;;;;11.27;85.33;101983.91;5014852;28;20026;-83
2021/06/09 01:40:16;;;;;;;7.35;4.05;;;;;;;11.32;84.68;101993.53;5015058;28;20412;-83
2021/06/09 01:42:42;;;;;;;6.47;3.88;;;;;;;11.28;85.56;101991.03;5014857;28;20036;-84
2021/06/09 01:45:10;;;;;;;9.43;4.22;;;;;;;11.27;85.23;101989.28;5015221;28;20104;-83
2021/06/09 01:47:35;;;;;;;6.68;3.83;;;;;;;11.24;85.32;101984.03;5016068;28;20053;-83
2021/06/09 01:50:04;;;;;;;8.13;4.18;;;;;;;11.25;86.21;101994.72;5014377;28;20469;-83
2021/06/09 01:52:29;;;;;;;7.88;4.50;;;;;;;11.19;86.20;101989.63;5013430;28;20461;-82
2021/06/09 01:54:55;;;;;;;8.63;4.00;;;;;;;11.20;86.19;101988.66;4995009;28;20028;-83
2021/06/09 01:57:20;;;;;;;7.05;4.00;;;;;;;11.15;86.37;101983.47;4978743;28;20100;-83
2021/06/09 01:59:45;;;;;;;8.30;4.35;;;;;;;11.19;86.18;101989.63;4994881;28;20081;-83
2021/06/09 02:02:11;;;;;;;8.27;4.25;;;;;;;11.11;86.29;101979.16;4991809;28;20037;-83
2021/06/09 02:04:40;;;;;;;7.30;4.15;;;;;;;11.12;86.46;101982.72;5014532;28;20121;-85
2021/06/09 02:07:05;;;;;;;6.82;4.50;;;;;;;11.14;85.90;101994.31;5014456;28;20049;-83
2021/06/09 02:09:31;;;;;;;8.77;4.93;;;;;;;11.11;86.13;101986.34;5014397;28;20093;-83
2021/06/09 02:11:59;;;;;;;8.18;4.32;;;;;;;11.09;87.01;101978.34;5014603;28;20033;-83
2021/06/09 02:14:24;;;;;;;9.55;4.88;;;;;;;11.12;86.51;101980.91;5014455;28;20029;-83
2021/06/09 02:16:50;;;;;;;8.43;4.60;;;;;;;11.10;87.03;101980.09;5014330;28;20037;-83
2021/06/09 02:19:16;;;;;;;7.53;4.20;;;;;;;11.09;86.61;101977.47;4997846;28;20117;-83
2021/06/09 02:21:44;;;;;;;7.35;4.28;;;;;;;11.08;86.40;101975.72;5015413;28;20025;-83
2021/06/09 02:24:11;;;;;;;9.60;4.57;;;;;;;11.01;87.15;101964.34;4987460;28;20030;-84
2021/06/09 02:26:38;;;;;;;6.32;4.35;;;;;;;11.06;86.41;101986.53;4994566;28;20098;-84
2021/06/09 02:29:04;;;;;;;9.55;4.63;;;;;;;11.04;86.52;101979.47;4994317;28;20029;-83
2021/06/09 02:31:29;;;;;;;7.80;4.82;;;;;;;11.03;87.24;101978.59;4994574;28;20042;-84
2021/06/09 02:33:55;;;;;;;9.18;4.78;;;;;;;11.05;86.91;101979.41;4994399;28;20463;-84
2021/06/09 02:36:21;;;;;;;8.48;5.20;;;;;;;11.04;86.69;101982.16;4994554;28;20034;-84
2021/06/09 02:38:48;;;;;;;8.50;5.10;;;;;;;11.04;87.35;101985.72;4994162;28;20533;-83
2021/06/09 02:41:14;;;;;;;7.70;4.40;;;;;;;11.02;86.96;101970.59;4994465;28;20117;-86
2021/06/09 02:43:39;;;;;;;9.60;4.80;;;;;;;11.04;86.96;101980.34;4994217;28;20065;-84
2021/06/09 02:46:43;;;;;;;7.63;4.43;;;;;;;11.00;87.95;101972.44;4993831;28;20076;-83
2021/06/09 02:49:10;;;;;;;9.63;4.53;;;;;;;11.02;87.95;101982.22;4958120;28;20104;-85
2021/06/09 02:51:40;;;;;;;8.93;4.38;;;;;;;11.03;87.89;101977.72;4941780;28;20023;-83
2021/06/09 02:54:11;;;;;;;10.18;4.65;;;;;;;11.01;87.97;101977.78;4957969;28;20038;-84
2021/06/09 02:56:59;;;;;;;7.88;4.43;;;;;;;11.03;87.15;101986.66;4957738;28;20023;-86
2021/06/09 02:59:30;;;;;;;6.90;4.95;;;;;;;11.01;87.77;101985.84;4958048;28;20081;-84
2021/06/09 03:02:35;;;;;;;7.30;4.60;;;;;;;10.99;88.73;101976.09;4973848;28;20082;-84
2021/06/09 03:05:27;;;;;;;9.13;4.15;;;;;;;10.99;87.75;101985.03;4957835;28;20098;-83
2021/06/09 03:08:13;;;;;;;7.28;4.25;;;;;;;10.99;87.64;101979.66;4938186;28;20038;-84
2021/06/09 03:10:50;;;;;;;7.38;4.25;;;;;;;11.01;87.26;101979.59;4970611;28;20125;-84
2021/06/09 03:14:15;;;;;;;12.02;4.85;;;;;;;11.00;87.94;101976.03;4977826;28;20525;-83
2021/06/09 03:16:44;;;;;;;7.30;4.43;;;;;;;10.99;88.30;101971.59;4965256;28;20076;-84
2021/06/09 03:19:13;;;;;;;8.13;4.30;;;;;;;11.00;87.81;101970.66;4982584;28;20124;-84
2021/06/09 03:22:06;;;;;;;8.48;3.72;;;;;;;11.01;88.16;101971.53;5013467;28;20057;-83
2021/06/09 03:24:36;;;;;;;11.63;4.05;;;;;;;11.03;87.67;101973.22;5013475;28;20433;-83
2021/06/09 03:27:05;;;;;;;8.23;3.65;;;;;;;11.06;87.20;101974.91;4997069;28;20024;-83
2021/06/09 03:29:33;;;;;;;7.10;3.97;;;;;;;11.11;87.96;101978.28;5012848;28;20038;-84
2021/06/09 03:32:02;;;;;;;8.43;4.28;;;;;;;11.14;87.25;101970.09;5014600;28;20049;-84
2021/06/09 03:34:30;;;;;;;6.80;3.45;;;;;;;11.14;87.03;101968.28;5013102;28;20022;-84
2021/06/09 03:36:57;;;;;;;6.43;3.53;;;;;;;11.22;86.81;101972.47;5015720;28;20018;-84
2021/06/09 03:39:23;;;;;;;6.05;2.97;;;;;;;11.29;86.28;101973.97;5017483;28;20022;-84
2021/06/09 03:41:55;;;;;;;4.57;3.10;;;;;;;11.33;86.15;101972.91;5017127;28;20034;-83
2021/06/09 03:44:26;;;;;;;6.65;3.63;;;;;;;11.37;86.27;101975.41;5017248;28;20018;-84
2021/06/09 03:46:52;;;;;;;6.47;3.28;;;;;;;11.42;86.66;101968.91;5017097;28;20077;-87
2021/06/09 03:49:18;;;;;;;6.43;3.88;;;;;;;11.43;85.79;101970.69;5017132;28;20022;-84
2021/06/09 03:51:44;;;;;;;7.95;3.42;;;;;;;11.52;86.35;101973.84;5016824;28;20080;-83
2021/06/09 03:54:09;;;;;;;8.05;3.53;;;;;;;11.55;86.22;101964.75;5017165;28;20030;-85
2021/06/09 03:56:37;;;;;;;5.50;3.13;;;;;;;11.57;85.79;101961.06;5000559;28;20050;-84
2021/06/09 03:59:02;;;;;;;;;;;;;;;11.65;85.93;101970.63;5017541;28;20026;-84
2021/06/09 04:01:32;;;;;;;7.53;3.25;;;;;;;11.66;86.06;101959.78;5016856;28;19920;-87
2021/06/09 04:04:00;;;;;;;5.60;3.10;;;;;;;11.73;85.78;101963.97;5016876;28;20030;-84
2021/06/09 04:06:26;;;;;;;5.15;3.00;;;;;;;11.81;85.45;101960.94;5016910;28;20030;-84
2021/06/09 04:08:52;;;;;;;5.95;2.72;;;;;;;11.89;85.41;101958.81;5016393;28;20037;-84
2021/06/09 04:11:18;;;;;;;7.32;3.40;;;;;;;12.03;85.25;101966.28;5016708;28;20500;-84
2021/06/09 04:13:44;;;;;;;5.43;2.90;;;;;;;12.14;84.99;101957.72;5016520;28;20055;-84
2021/06/09 04:16:10;;;;;;;6.03;3.10;;;;;;;12.28;84.15;101963.34;4999406;28;20477;-84
2021/06/09 04:18:36;;;;;;;5.40;3.33;;;;;;;12.43;83.74;101968.00;5016388;28;20037;-84
2021/06/09 04:21:03;;;;;;;6.78;3.08;;;;;;;12.60;83.00;101971.72;5016680;28;20101;-84
2021/06/09 04:23:29;;;;;;;5.93;2.50;;;;;;;12.76;82.30;101966.47;5016521;28;20044;-84
2021/06/09 04:25:58;;;;;;;5.28;2.60;;;;;;;12.97;81.12;101964.56;5016329;28;20389;-85
2021/06/09 04:28:25;;;;;;;5.53;2.70;;;;;;;13.20;81.75;101975.06;4999886;28;20026;-84
2021/06/09 04:30:52;;;;;;;8.63;3.28;;;;;;;13.35;81.34;101961.81;5016551;28;20022;-86
2021/06/09 04:33:17;;;;;;;;;;;;;;;13.52;79.99;101972.63;5016820;28;20026;-85
2021/06/09 04:35:44;;;;;;;6.97;3.00;;;;;;;13.74;81.14;101974.19;5016215;28;19913;-85
2021/06/09 04:38:18;;;;;;;5.43;2.58;;;;;;;13.89;80.17;101963.47;5016421;28;20260;-85
2021/06/09 04:40:44;;;;;;;7.35;2.88;;;;;;;14.05;80.34;101966.22;4999821;28;20092;-85
2021/06/09 04:43:11;;;;;;;6.25;3.70;;;;;;;14.17;79.93;101950.31;5016260;28;20112;-86
2021/06/09 04:45:36;;;;;;;5.40;2.90;;;;;;;14.40;79.04;101965.28;5015883;28;20045;-85
2021/06/09 04:48:02;;;;;;;5.95;2.67;;;;;;;14.49;78.26;101959.34;4999136;28;20290;-85
2021/06/09 04:50:28;;;;;;;4.63;2.45;;;;;;;14.76;78.47;101959.69;5016398;28;20076;-85
2021/06/09 04:53:09;;;;;;;11.07;3.30;;;;;;;14.91;78.78;101968.75;5015935;28;20022;-85
2021/06/09 04:55:36;;;;;;;7.82;4.00;;;;;;;15.12;76.60;101963.91;5018072;28;20363;-85
2021/06/09 04:58:01;;;;;;;6.60;3.85;;;;;;;15.24;77.43;101965.91;5015914;28;20026;-85
2021/06/09 05:00:26;;;;;;;7.00;3.88;;;;;;;15.37;76.29;101963.34;5015730;28;20033;-86
2021/06/09 05:02:51;;;;;;;5.55;2.70;;;;;;;15.51;75.35;101951.69;5015619;28;20041;-85
2021/06/09 05:05:17;;;;;;;7.60;3.22;;;;;;;15.68;75.72;101959.66;5015718;28;20037;-86
2021/06/09 05:07:42;;;;;;;7.10;3.53;;;;;;;15.81;73.64;101962.53;5015688;28;20030;-86
2021/06/09 05:10:08;;;;;;;7.38;3.35;;;;;;;15.96;73.03;101960.72;5015529;28;20406;-87
2021/06/09 05:12:37;;;;;;;7.28;3.22;;;;;;;16.10;73.37;101949.00;5015682;28;20026;-85
2021/06/09 05:15:08;;;;;;;6.53;3.28;;;;;;;16.31;72.30;101966.63;4998746;28;20100;-87
2021/06/09 05:17:37;;;;;;;6.28;3.05;;;;;;;16.47;70.43;101955.69;4996095;28;20080;-85
2021/06/09 05:20:05;;;;;;;8.32;2.70;;;;;;;16.65;65.95;101958.19;4995781;28;20030;-85
2021/06/09 05:22:33;;;;;;;8.60;2.47;;;;;;;16.97;60.52;101954.28;4996068;28;20030;-85
2021/06/09 05:25:04;;;;;;;5.60;2.30;;;;;;;17.08;62.18;101964.44;4995910;28;20549;-85
2021/06/09 05:27:30;;;;;;;5.95;2.47;;;;;;;17.24;62.05;101978.72;4979645;28;20035;-86
2021/06/09 05:29:56;;;;;;;9.02;2.83;;;;;;;17.41;63.09;101955.84;4995733;28;20101;-86
2021/06/09 05:32:21;;;;;;;7.32;2.78;;;;;;;17.66;59.12;101965.00;4995417;28;20554;-86
2021/06/09 05:34:47;;;;;;;7.82;2.70;;;;;;;17.93;56.57;101964.09;4995644;28;20466;-87
2021/06/09 05:37:14;;;;;;;10.20;3.22;;;;;;;18.21;57.30;101968.47;4979333;28;20497;-86
2021/06/09 05:39:40;;;;;;;9.15;2.80;;;;;;;18.49;56.52;101957.31;4995512;28;20030;-88
2021/06/09 05:42:10;;;;;;;10.52;2.92;;;;;;;19.03;53.05;101958.84;4979218;28;20379;-87
2021/06/09 05:44:36;;;;;;;6.47;2.88;;;;;;;19.44;51.44;101951.22;4995499;28;20117;-87
2021/06/09 05:47:02;;;;;;;8.85;2.70;;;;;;;19.88;49.33;101953.25;4992126;28;20477;-88
2021/06/09 05:49:28;;;;;;;9.27;2.83;;;;;;;20.81;46.27;101944.81;5015398;28;20034;-88
2021/06/09 05:51:54;;;;;;;7.15;2.25;;;;;;;22.02;42.13;101958.25;4998390;28;20492;-88
2021/06/09 05:54:20;;;;;;;4.47;1.70;;;;;;;22.76;41.44;101951.66;5014841;28;20038;-88
2021/06/09 05:56:46;;;;;;;6.22;1.95;;;;;;;22.78;41.65;101951.53;5014909;28;20072;-89
2021/06/09 05:59:15;;;;;;;5.95;2.63;;;;;;;22.50;42.97;101961.41;5014367;28;20037;-89
2021/06/09 06:01:42;;;;;;;7.63;2.40;;;;;;;22.52;40.40;101951.19;5014720;28;20088;-89
2021/06/09 06:04:08;;;;;;;9.50;2.47;;;;;;;22.64;40.25;101956.41;5014475;28;20026;-90
2021/06/09 06:06:34;;;;;;;5.90;1.90;;;;;;;22.35;41.54;101953.56;5014563;28;20034;-88
2021/06/09 06:08:59;;;;;;;5.25;2.45;;;;;;;22.38;41.31;101947.81;5014874;28;20081;-88
2021/06/09 06:11:24;;;;;;;11.02;3.33;;;;;;;22.15;40.46;101954.44;5016296;28;20458;-88
2021/06/09 06:13:50;;;;;;;6.47;2.50;;;;;;;22.09;41.11;101954.97;5015417;28;20022;-88
2021/06/09 06:16:18;;;;;;;7.85;2.60;;;;;;;22.21;39.63;101957.53;4999133;28;20030;-87
2021/06/09 06:18:45;;;;;;;7.05;2.63;;;;;;;22.42;39.46;101949.28;5014348;28;20026;-89
2021/06/09 06:21:13;;;;;;;5.25;2.20;;;;;;;22.59;38.45;101942.25;4997943;28;20109;-88
2021/06/09 06:23:39;;;;;;;10.63;2.63;;;;;;;22.89;37.74;101946.81;5015307;28;20022;-89
2021/06/09 06:26:06;;;;;;;4.27;1.80;;;;;;;23.53;38.24;101936.34;5015663;28;20149;-88
2021/06/09 06:28:32;;;;;;;6.28;2.28;;;;;;;24.83;34.70;101941.16;5014614;28;20034;-89
2021/06/09 06:30:59;;;;;;;5.73;2.23;;;;;;;26.00;32.54;101932.81;5016235;28;20036;-90
2021/06/09 06:33:25;;;;;;;6.95;2.53;;;;;;;27.75;30.65;101935.75;4997804;28;20029;-91
2021/06/09 06:35:51;;;;;;;5.75;2.30;;;;;;;29.01;27.08;101929.50;5014558;28;20026;-91
2021/06/09 06:38:19;;;;;;;7.28;2.20;;;;;;;30.33;24.67;101932.88;5000016;28;20030;-90
2021/06/09 06:40:44;;;;;;;8.50;2.03;;;;;;;31.06;23.83;101927.41;5014460;28;20581;-91
2021/06/09 06:43:10;;;;;;;7.60;1.93;;;;;;;32.46;22.16;101943.31;5013895;28;20053;-91
2021/06/09 06:45:35;;;;;;;7.87;1.60;;;;;;;32.89;21.73;101936.69;5013466;28;20025;-93
2021/06/09 06:48:02;;;;;;;8.33;1.70;;;;;;;33.03;21.19;101923.66;4997557;28;20061;-91
2021/06/09 06:50:27;;;;;;;;;;;;;;;33.64;20.70;101939.44;5014486;28;20088;-92
2021/06/09 06:52:52;;;;;;;4.65;1.70;;;;;;;34.90;18.88;101933.56;5015707;28;19917;-91
2021/06/09 06:55:19;;;;;;;5.00;1.97;;;;;;;34.53;19.49;101927.69;5013762;28;20022;-89
2021/06/09 06:57:45;;;;;;;4.60;1.63;;;;;;;35.33;18.35;101918.09;5013667;28;20079;-86
2021/06/09 07:00:13;;;;;;;7.23;1.70;;;;;;;36.56;16.83;101936.06;5015530;28;20022;-89
2021/06/09 07:02:39;;;;;;;5.07;1.52;;;;;;;35.74;17.70;101934.34;4998476;28;20264;-89
2021/06/09 07:05:05;;;;;;;;;;;;;;;36.31;17.05;101936.13;4997909;28;20080;-89
2021/06/09 07:07:32;;;;;;;9.32;1.65;;;;;;;36.82;16.54;101929.28;5016357;28;19917;-89
2021/06/09 07:10:02;;;;;;;6.05;1.38;;;;;;;36.93;15.56;101917.28;5015761;28;20049;-90
2021/06/09 07:12:27;;;;;;;6.72;1.90;;;;;;;36.80;16.11;101914.66;5015117;28;20026;-91
2021/06/09 07:14:53;;;;;;;5.00;1.77;;;;;;;37.69;16.00;101926.91;4999607;28;20022;-90
2021/06/09 07:17:18;;;;;;;5.28;1.63;;;;;;;35.73;17.13;101932.59;4978486;28;20398;-89
2021/06/09 07:19:43;;;;;;;8.35;2.05;;;;;;;37.05;16.16;101912.56;4993999;28;20084;-90
2021/06/09 07:22:09;;;;;;;6.60;1.40;;;;;;;37.66;15.27;101901.28;4993708;28;20493;-90
2021/06/09 07:24:36;;;;;;;8.13;1.83;;;;;;;37.63;15.48;101913.00;4993633;28;20080;-91
2021/06/09 07:27:03;;;;;;;5.72;1.67;;;;;;;38.13;15.16;101920.91;4993731;28;20276;-90
2021/06/09 07:29:29;;;;;;;6.35;1.58;;;;;;;38.78;14.38;101913.34;4994471;28;20102;-91
2021/06/09 07:31:55;;;;;;;5.07;1.40;;;;;;;38.45;14.75;101920.50;4994825;28;20054;-91
2021/06/09 07:34:20;;;;;;;4.55;1.70;;;;;;;37.12;15.40;101914.44;4994566;28;20441;-90
2021/06/09 07:36:50;;;;;;;;;;;;;;;38.42;14.67;101921.00;4996619;28;20053;-91
2021/06/09 07:39:22;;;;;;;5.75;1.67;;;;;;;37.40;15.53;101930.59;4994633;28;20358;-89
2021/06/09 07:41:47;;;;;;;4.82;1.30;;;;;;;39.30;14.18;101916.03;4979073;28;20537;-91
2021/06/09 07:44:13;;;;;;;;;;;;;;;38.41;14.48;101922.97;4978555;28;20061;-92
2021/06/09 07:46:39;;;;;;;4.77;1.60;;;;;;;39.37;13.61;101921.53;5008025;28;19952;-91
2021/06/09 07:49:07;;;;;;;4.10;1.58;;;;;;;40.33;12.60;101902.50;5014874;28;20034;-90
2021/06/09 07:51:33;;;;;;;6.60;1.30;;;;;;;39.97;12.33;101906.78;5013106;28;20457;-90
2021/06/09 07:54:00;;;;;;;;;;;;;;;39.48;13.82;101915.81;4997479;28;20033;-90
2021/06/09 07:56:36;;;;;;;7.00;1.60;;;;;;;40.14;13.40;101901.09;5013557;28;19924;-90
2021/06/09 07:59:04;;;;;;;7.75;1.50;;;;;;;40.75;12.67;101910.34;5014932;28;20432;-91
2021/06/09 08:01:30;;;;;;;6.72;1.88;;;;;;;41.56;12.54;101915.13;4996293;28;20409;-90
2021/06/09 08:03:56;;;;;;;7.03;1.70;;;;;;;41.33;12.79;101899.38;5013873;28;20054;-91
2021/06/09 08:06:24;;;;;;;6.97;1.35;;;;;;;40.36;12.84;101909.56;4996563;28;20026;-90
2021/06/09 08:08:50;;;;;;;4.18;1.40;;;;;;;40.98;13.17;101908.34;5015885;28;20117;-91
2021/06/09 08:11:15;;;;;;;3.53;1.52;;;;;;;41.31;12.15;101903.59;5015432;28;20041;-90
2021/06/09 08:13:42;;;;;;;7.35;1.10;;;;;;;43.07;11.23;101907.97;4984238;28;20136;-90
2021/06/09 08:16:17;;;;;;;2.65;1.20;;;;;;;42.40;10.77;101896.47;5014719;28;20071;-90
2021/06/09 08:18:43;;;;;;;1.90;1.05;;;;;;;43.53;10.23;101902.34;4996611;28;20079;-93
2021/06/09 08:21:12;;;;;;;2.05;0.98;;;;;;;43.22;11.19;101902.38;5011543;28;20504;-91
2021/06/09 08:23:40;;;;;;;5.53;1.52;;;;;;;41.95;12.02;101909.19;5016667;28;20496;-90
2021/06/09 08:26:05;;;;;;;4.78;1.10;;;;;;;42.01;11.29;101902.50;5017520;28;20018;-92
2021/06/09 08:28:35;;;;;;;6.05;1.25;;;;;;;42.11;11.69;101910.16;5002307;28;20052;-91
2021/06/09 08:31:01;;;;;;;4.70;1.15;;;;;;;42.21;11.83;101893.25;5000892;28;20057;-91
2021/06/09 08:33:27;;;;;;;3.72;1.10;;;;;;;43.67;11.17;101906.31;5016216;28;20021;-90
2021/06/09 08:35:52;;;;;;;4.72;1.23;;;;;;;43.73;11.27;101911.97;5000016;28;20076;-90
2021/06/09 08:38:17;;;;;;;3.05;1.23;;;;;;;43.89;11.09;101903.19;5016616;28;20035;-92
2021/06/09 08:40:43;;;;;;;2.45;1.30;;;;;;;45.14;9.96;101902.31;5016172;28;20026;-90
2021/06/09 08:43:09;;;;;;;3.40;1.00;;;;;;;44.60;9.77;101892.72;5017716;28;20112;-91
2021/06/09 08:45:35;;;;;;;5.68;1.05;;;;;;;44.35;10.69;101895.66;5018028;28;20469;-92
2021/06/09 08:48:01;;;;;;;3.33;1.40;;;;;;;44.59;10.46;101908.06;4983789;28;20026;-90
2021/06/09 08:50:26;;;;;;;6.07;1.52;;;;;;;45.11;9.54;101902.91;4981282;28;20022;-92
2021/06/09 08:52:52;;;;;;;6.47;1.30;;;;;;;44.23;10.36;101915.84;4980177;28;20113;-90
2021/06/09 08:55:18;;;;;;;4.28;1.08;;;;;;;43.29;11.55;101914.25;4980412;28;20065;-92
2021/06/09 08:57:44;;;;;;;2.25;1.00;;;;;;;43.86;10.62;101911.38;4989048;28;20032;-92
2021/06/09 09:00:11;;;;;;;3.67;1.05;;;;;;;45.65;10.20;101898.22;5016025;28;20089;-92
2021/06/09 09:02:39;;;;;;;5.65;1.30;;;;;;;45.48;9.41;101912.84;5015562;28;20129;-90
2021/06/09 09:05:06;;;;;;;2.03;0.82;;;;;;;44.52;9.23;101885.69;4981066;28;20084;-91
2021/06/09 09:07:31;;;;;;;2.08;0.90;;;;;;;43.21;10.23;101917.63;4996545;28;20022;-93
2021/06/09 09:09:58;;;;;;;3.13;1.10;;;;;;;42.08;10.86;101898.53;4997012;28;20501;-89
2021/06/09 09:12:23;;;;;;;2.30;1.00;;;;;;;39.63;12.09;101903.97;4996190;28;20277;-90
2021/06/09 09:14:49;;;;;;;4.53;1.17;;;;;;;37.10;14.88;101920.28;4996179;28;20030;-90
2021/06/09 09:17:14;;;;;;;;;;;;;;;35.77;16.87;101922.69;4996411;28;20089;-89
2021/06/09 09:19:41;;;;;;;3.97;1.00;;;;;;;34.72;18.90;101922.28;4995958;28;20358;-90
2021/06/09 09:22:08;;;;;;;1.63;0.80;;;;;;;34.75;16.89;101919.91;4996288;28;20489;-90
2021/06/09 09:24:40;;;;;;;6.45;0.90;;;;;;;36.95;15.08;101912.28;5010930;28;20057;-92
2021/06/09 09:27:06;;;;;;;4.07;1.38;;;;;;;38.84;14.03;101906.72;5015339;28;20381;-91
2021/06/09 09:29:31;;;;;;;;;;;;;;;39.68;13.20;101911.63;4999234;28;20109;-90
2021/06/09 09:32:05;;;;;;;2.58;1.00;;;;;;;41.33;11.70;101901.38;5011708;28;19952;-91
2021/06/09 09:34:35;;;;;;;3.30;1.23;;;;;;;42.73;10.91;101911.28;4978431;28;20026;-91
2021/06/09 09:37:10;;;;;;;1.70;1.00;;;;;;;42.17;11.21;101906.25;4995745;28;20054;-94
2021/06/09 09:39:38;;;;;;;5.65;1.38;;;;;;;41.14;11.69;101907.41;5012011;28;20485;-90
2021/06/09 09:42:36;;;;;;;2.20;0.95;;;;;;;39.49;13.15;101913.84;4995424;28;20129;-93
2021/06/09 09:45:23;;;;;;;2.92;1.27;;;;;;;37.47;14.58;101906.13;4996164;28;20121;-93
2021/06/09 09:48:03;;;;;;;4.75;1.10;;;;;;;36.15;16.72;101916.06;5011623;28;20033;-92
2021/06/09 09:50:48;;;;;;;5.47;1.00;;;;;;;34.89;18.50;101909.53;4996438;28;20026;-90
2021/06/09 09:53:22;;;;;;;2.83;1.10;;;;;;;34.35;18.87;101913.63;4995355;28;20414;-90
2021/06/09 09:56:03;;;;;;;2.45;1.17;;;;;;;34.97;17.38;101916.78;5013155;28;20022;-90
2021/06/09 09:58:29;;;;;;;3.50;1.30;;;;;;;35.91;16.93;101911.38;5031104;28;20497;-90
2021/06/09 10:01:10;;;;;;;8.82;1.65;;;;;;;36.59;16.27;101908.47;4998823;28;20049;-90
2021/06/09 10:03:37;;;;;;;5.18;1.40;;;;;;;38.67;14.09;101903.88;5030895;28;20083;-90
2021/06/09 10:06:27;;;;;;;6.28;1.20;;;;;;;40.27;13.10;101903.56;4998192;28;20064;-91
2021/06/09 10:08:55;;;;;;;8.55;1.33;;;;;;;43.59;9.74;101883.38;5014635;28;20501;-90
2021/06/09 10:11:22;;;;;;;5.88;1.15;;;;;;;44.29;9.91;101909.03;4999082;28;20124;-92
2021/06/09 10:13:48;;;;;;;3.20;1.30;;;;;;;45.29;8.78;101902.22;4997993;28;20025;-91
2021/06/09 10:16:25;;;;;;;6.15;1.35;;;;;;;45.82;8.51;101898.63;5014801;28;20028;-92
2021/06/09 10:18:59;;;;;;;3.05;1.17;;;;;;;46.74;7.98;101882.44;5015230;28;20030;-91
2021/06/09 10:21:25;;;;;;;4.40;0.95;;;;;;;48.16;7.87;101902.97;4998903;28;20033;-92
2021/06/09 10:23:51;;;;;;;3.15;1.27;;;;;;;48.10;6.73;101896.56;4999880;28;20068;-91
2021/06/09 10:26:17;;;;;;;7.15;1.20;;;;;;;48.54;6.38;101880.78;4998934;28;20390;-92
2021/06/09 10:29:06;;;;;;;4.63;1.40;;;;;;;50.13;5.66;101887.28;5014360;28;20026;-92
2021/06/09 10:31:35;;;;;;;4.70;1.63;;;;;;;50.23;5.90;101882.09;5006905;28;20044;-92
2021/06/09 10:34:01;;;;;;;5.20;1.65;;;;;;;49.08;6.57;101875.25;5014144;28;20116;-90
2021/06/09 10:36:26;;;;;;;3.50;1.42;;;;;;;48.27;6.85;101866.59;4997761;28;20018;-90
2021/06/09 10:38:53;;;;;;;6.93;1.50;;;;;;;48.24;7.80;101879.50;4997477;28;20026;-91
2021/06/09 10:41:22;;;;;;;5.60;1.83;;;;;;;49.29;7.17;101855.59;5015097;28;20033;-91
2021/06/09 10:43:49;;;;;;;8.65;1.90;;;;;;;50.63;6.27;101875.47;4998530;28;20037;-92
2021/06/09 10:46:19;;;;;;;4.18;1.75;;;;;;;50.91;6.09;101875.97;5014013;28;20026;-93
2021/06/09 10:48:46;;;;;;;3.08;1.30;;;;;;;50.45;5.98;101866.03;5014315;28;20489;-91
2021/06/09 10:51:12;;;;;;;4.53;1.40;;;;;;;49.77;6.06;101857.75;5014613;28;20029;-91
2021/06/09 10:53:38;;;;;;;3.03;1.50;;;;;;;49.55;6.41;101850.03;5015317;28;20022;-91
2021/06/09 10:56:04;;;;;;;1.83;1.27;;;;;;;50.79;4.90;101852.94;5013653;28;20026;-91
2021/06/09 10:58:29;;;;;;;6.55;1.30;;;;;;;49.20;6.43;101860.41;4997773;28;20141;-91
2021/06/09 11:00:56;;;;;;;4.77;1.63;;;;;;;50.06;5.71;101859.19;5014456;28;20026;-92
2021/06/09 11:03:22;;;;;;;2.60;1.33;;;;;;;51.20;4.68;101863.00;5013613;28;20321;-92
2021/06/09 11:05:48;;;;;;;5.32;1.58;;;;;;;51.93;4.86;101858.03;5012988;28;20026;-90
2021/06/09 11:08:15;;;;;;;2.25;1.50;;;;;;;49.95;6.28;101843.50;4997782;28;20041;-91
2021/06/09 11:10:42;;;;;;;4.53;1.67;;;;;;;49.96;6.86;101848.88;4997791;28;20077;-90
2021/06/09 11:13:09;;;;;;;3.63;1.63;;;;;;;50.47;6.27;101846.53;5014234;28;20037;-93
2021/06/09 11:15:34;;;;;;;4.32;1.70;;;;;;;49.84;6.10;101849.53;5014648;28;20036;-91
2021/06/09 11:18:03;;;;;;;6.13;2.15;;;;;;;49.02;7.08;101837.47;5014416;28;20048;-90
2021/06/09 11:20:31;;;;;;;5.25;1.60;;;;;;;51.82;5.35;101842.44;5013729;28;20037;-92
2021/06/09 11:23:11;;;;;;;2.03;1.40;;;;;;;52.38;4.64;101845.13;4997482;28;20017;-92
2021/06/09 11:25:42;;;;;;;5.90;1.95;;;;;;;50.80;5.63;101841.16;4997388;28;20118;-92
2021/06/09 11:28:10;;;;;;;7.43;1.85;;;;;;;50.29;6.26;101842.75;5013636;28;20018;-91
2021/06/09 11:30:37;;;;;;;5.35;1.70;;;;;;;49.50;6.72;101842.47;5013820;28;20052;-91
2021/06/09 11:33:05;;;;;;;4.40;2.30;;;;;;;50.71;5.41;101837.47;5014406;28;20022;-92